Terminal Aerodrome Forecast
Issued by NWS Newport/Morehead City, NC

Home | Current Version | Previous Version | Graphics & Text | Print | Product List | Glossary On
Versions: 1 2 3 4 5 6 7 8 9 10 11 12 13 14 15 16 17 18 19 20 21
212
FTUS42 KMHX 281720
TAFEWN
TAF
KEWN 281720Z 2818/2918 06007KT P6SM VCTS BKN050CB
     FM290200 VRB03KT P6SM BKN060
     FM290700 VRB03KT 5SM BR BKN007 OVC100
     FM291400 03006KT P6SM BKN100=

USA.gov is the U.S. government's official web portal to all federal, state and local government web resources and services.